sensor_id;sensor_type;location;lat;lon;timestamp;pressure;altitude;pressure_sealevel;temperature;humidity
6349;BME280;3207;42.648;23.406;2023-03-18T00:27:34;100248.53;;;8.53;nan
6349;BME280;3207;42.648;23.406;2023-03-18T02:36:08;100072.56;;;6.74;nan
6349;BME280;3207;42.648;23.406;2023-03-18T03:08:17;100158.66;;;7.29;nan
6349;BME280;3207;42.648;23.406;2023-03-18T05:08:21;100160.78;;;6.11;nan
6349;BME280;3207;42.648;23.406;2023-03-18T06:19:24;100211.34;;;15.92;nan
6349;BME280;3207;42.648;23.406;2023-03-18T06:21:52;100219.13;;;16.50;nan
6349;BME280;3207;42.648;23.406;2023-03-18T06:24:19;100217.97;;;17.17;nan
6349;BME280;3207;42.648;23.406;2023-03-18T06:26:46;100226.16;;;17.59;nan
6349;BME280;3207;42.648;23.406;2023-03-18T06:29:14;100218.34;;;17.85;nan
6349;BME280;3207;42.648;23.406;2023-03-18T06:31:42;100223.94;;;18.25;nan
6349;BME280;3207;42.648;23.406;2023-03-18T06:34:09;100199.03;;;18.36;nan
6349;BME280;3207;42.648;23.406;2023-03-18T06:36:37;100220.78;;;18.74;nan
6349;BME280;3207;42.648;23.406;2023-03-18T06:39:05;100223.88;;;19.11;nan
6349;BME280;3207;42.648;23.406;2023-03-18T06:41:31;100233.44;;;19.46;nan
6349;BME280;3207;42.648;23.406;2023-03-18T06:43:58;100204.47;;;19.77;nan
6349;BME280;3207;42.648;23.406;2023-03-18T06:46:26;100207.34;;;20.63;nan
6349;BME280;3207;42.648;23.406;2023-03-18T06:48:53;100240.06;;;21.42;nan
6349;BME280;3207;42.648;23.406;2023-03-18T06:51:20;100237.09;;;21.82;nan
6349;BME280;3207;42.648;23.406;2023-03-18T06:53:47;100232.97;;;22.55;nan
6349;BME280;3207;42.648;23.406;2023-03-18T06:56:14;100237.03;;;22.95;nan
6349;BME280;3207;42.648;23.406;2023-03-18T06:58:41;100225.94;;;22.77;nan
6349;BME280;3207;42.648;23.406;2023-03-18T07:01:09;100243.63;;;22.55;nan
6349;BME280;3207;42.648;23.406;2023-03-18T07:03:38;100247.00;;;22.34;nan
6349;BME280;3207;42.648;23.406;2023-03-18T07:06:06;100249.59;;;22.42;nan
6349;BME280;3207;42.648;23.406;2023-03-18T07:08:34;100246.94;;;23.01;nan
6349;BME280;3207;42.648;23.406;2023-03-18T07:11:01;100246.81;;;24.02;nan
6349;BME280;3207;42.648;23.406;2023-03-18T07:13:29;100256.66;;;24.86;nan
6349;BME280;3207;42.648;23.406;2023-03-18T07:15:55;100243.38;;;25.53;nan
6349;BME280;3207;42.648;23.406;2023-03-18T07:18:24;100259.94;;;26.22;nan
6349;BME280;3207;42.648;23.406;2023-03-18T07:20:53;100255.50;;;27.01;nan
6349;BME280;3207;42.648;23.406;2023-03-18T07:23:19;100255.88;;;27.55;nan
6349;BME280;3207;42.648;23.406;2023-03-18T07:25:47;100264.88;;;27.67;nan
6349;BME280;3207;42.648;23.406;2023-03-18T07:28:14;100273.13;;;28.72;nan
6349;BME280;3207;42.648;23.406;2023-03-18T07:30:41;100273.09;;;29.63;nan
6349;BME280;3207;42.648;23.406;2023-03-18T07:33:07;100281.34;;;30.56;nan
6349;BME280;3207;42.648;23.406;2023-03-18T07:35:34;100274.00;;;31.15;nan
6349;BME280;3207;42.648;23.406;2023-03-18T07:38:06;100272.16;;;32.06;nan
6349;BME280;3207;42.648;23.406;2023-03-18T07:40:33;100284.38;;;32.42;nan
6349;BME280;3207;42.648;23.406;2023-03-18T07:43:00;100290.28;;;32.72;nan
6349;BME280;3207;42.648;23.406;2023-03-18T07:45:27;100290.97;;;33.06;nan
6349;BME280;3207;42.648;23.406;2023-03-18T07:47:54;100294.16;;;32.43;nan
6349;BME280;3207;42.648;23.406;2023-03-18T07:50:21;100253.97;;;32.35;nan
6349;BME280;3207;42.648;23.406;2023-03-18T07:52:48;100291.72;;;32.63;nan
6349;BME280;3207;42.648;23.406;2023-03-18T07:55:16;100290.31;;;32.94;nan
6349;BME280;3207;42.648;23.406;2023-03-18T07:57:44;100297.06;;;33.35;nan
6349;BME280;3207;42.648;23.406;2023-03-18T08:00:13;100295.38;;;33.78;nan
6349;BME280;3207;42.648;23.406;2023-03-18T08:02:41;100283.31;;;33.69;nan
6349;BME280;3207;42.648;23.406;2023-03-18T08:05:08;100306.19;;;34.37;nan
6349;BME280;3207;42.648;23.406;2023-03-18T08:07:36;100304.78;;;35.23;nan
6349;BME280;3207;42.648;23.406;2023-03-18T08:10:03;100304.31;;;35.37;nan
6349;BME280;3207;42.648;23.406;2023-03-18T08:12:32;100301.88;;;34.41;nan
6349;BME280;3207;42.648;23.406;2023-03-18T08:14:58;100302.97;;;35.54;nan
6349;BME280;3207;42.648;23.406;2023-03-18T08:17:25;100304.34;;;35.57;nan
6349;BME280;3207;42.648;23.406;2023-03-18T08:19:52;100302.47;;;36.64;nan
6349;BME280;3207;42.648;23.406;2023-03-18T08:22:19;100284.09;;;37.00;nan
6349;BME280;3207;42.648;23.406;2023-03-18T08:24:46;100308.25;;;38.20;nan
6349;BME280;3207;42.648;23.406;2023-03-18T08:27:13;100305.28;;;37.78;nan
6349;BME280;3207;42.648;23.406;2023-03-18T08:29:41;100306.72;;;37.65;nan
6349;BME280;3207;42.648;23.406;2023-03-18T08:32:09;100306.59;;;38.19;nan
6349;BME280;3207;42.648;23.406;2023-03-18T08:34:36;100300.91;;;37.82;nan
6349;BME280;3207;42.648;23.406;2023-03-18T08:37:03;100303.09;;;39.19;nan
6349;BME280;3207;42.648;23.406;2023-03-18T08:39:31;100304.94;;;39.24;nan
6349;BME280;3207;42.648;23.406;2023-03-18T08:41:58;100311.47;;;38.80;nan
6349;BME280;3207;42.648;23.406;2023-03-18T08:44:25;100301.94;;;39.44;nan
6349;BME280;3207;42.648;23.406;2023-03-18T08:46:53;100279.78;;;39.97;nan
6349;BME280;3207;42.648;23.406;2023-03-18T08:49:20;100309.19;;;40.70;nan
6349;BME280;3207;42.648;23.406;2023-03-18T08:51:47;100300.03;;;41.65;nan
6349;BME280;3207;42.648;23.406;2023-03-18T08:54:14;100297.34;;;42.18;nan
6349;BME280;3207;42.648;23.406;2023-03-18T08:56:41;100300.22;;;42.05;nan
6349;BME280;3207;42.648;23.406;2023-03-18T08:59:08;100307.06;;;41.93;nan
6349;BME280;3207;42.648;23.406;2023-03-18T09:01:35;100269.66;;;42.06;nan
6349;BME280;3207;42.648;23.406;2023-03-18T09:04:03;100298.50;;;42.79;nan
6349;BME280;3207;42.648;23.406;2023-03-18T09:06:31;100300.19;;;43.15;nan
6349;BME280;3207;42.648;23.406;2023-03-18T09:08:58;100295.38;;;43.29;nan
6349;BME280;3207;42.648;23.406;2023-03-18T09:11:25;100288.66;;;43.04;nan
6349;BME280;3207;42.648;23.406;2023-03-18T09:13:52;100268.66;;;43.21;nan
6349;BME280;3207;42.648;23.406;2023-03-18T09:16:19;100289.91;;;43.55;nan
6349;BME280;3207;42.648;23.406;2023-03-18T09:18:46;100277.88;;;43.25;nan
6349;BME280;3207;42.648;23.406;2023-03-18T09:21:14;100289.16;;;43.06;nan
6349;BME280;3207;42.648;23.406;2023-03-18T09:23:41;100283.53;;;44.14;nan
6349;BME280;3207;42.648;23.406;2023-03-18T09:26:09;100252.38;;;45.11;nan
6349;BME280;3207;42.648;23.406;2023-03-18T09:28:35;100286.16;;;45.37;nan
6349;BME280;3207;42.648;23.406;2023-03-18T09:31:02;100267.28;;;45.60;nan
6349;BME280;3207;42.648;23.406;2023-03-18T09:33:30;100288.00;;;45.87;nan
6349;BME280;3207;42.648;23.406;2023-03-18T09:35:57;100263.69;;;44.97;nan
6349;BME280;3207;42.648;23.406;2023-03-18T09:38:25;100285.81;;;45.60;nan
6349;BME280;3207;42.648;23.406;2023-03-18T09:41:02;100282.97;;;45.89;nan
6349;BME280;3207;42.648;23.406;2023-03-18T09:43:43;100274.97;;;46.08;nan
6349;BME280;3207;42.648;23.406;2023-03-18T09:46:24;100284.72;;;46.39;nan
6349;BME280;3207;42.648;23.406;2023-03-18T09:51:51;100284.53;;;46.23;nan
6349;BME280;3207;42.648;23.406;2023-03-18T09:54:31;100273.91;;;46.13;nan
6349;BME280;3207;42.648;23.406;2023-03-18T09:57:01;100275.81;;;46.45;nan
6349;BME280;3207;42.648;23.406;2023-03-18T09:59:36;100275.91;;;45.38;nan
6349;BME280;3207;42.648;23.406;2023-03-18T10:02:17;100276.25;;;45.36;nan
6349;BME280;3207;42.648;23.406;2023-03-18T10:04:48;100272.38;;;45.91;nan
6349;BME280;3207;42.648;23.406;2023-03-18T10:07:20;100268.88;;;45.82;nan
6349;BME280;3207;42.648;23.406;2023-03-18T10:09:53;100244.75;;;44.11;nan
6349;BME280;3207;42.648;23.406;2023-03-18T10:12:28;100262.34;;;43.37;nan
6349;BME280;3207;42.648;23.406;2023-03-18T10:15:03;100259.06;;;44.51;nan
6349;BME280;3207;42.648;23.406;2023-03-18T10:17:37;100267.50;;;45.88;nan
6349;BME280;3207;42.648;23.406;2023-03-18T10:20:14;100277.88;;;46.97;nan
6349;BME280;3207;42.648;23.406;2023-03-18T10:22:59;100275.59;;;47.51;nan
6349;BME280;3207;42.648;23.406;2023-03-18T10:25:35;100267.47;;;47.86;nan
6349;BME280;3207;42.648;23.406;2023-03-18T10:31:03;100273.78;;;47.43;nan
6349;BME280;3207;42.648;23.406;2023-03-18T10:33:41;100261.75;;;47.95;nan
6349;BME280;3207;42.648;23.406;2023-03-18T10:36:16;100264.34;;;47.88;nan
6349;BME280;3207;42.648;23.406;2023-03-18T10:38:46;100255.22;;;48.66;nan
6349;BME280;3207;42.648;23.406;2023-03-18T10:41:19;100272.03;;;49.43;nan
6349;BME280;3207;42.648;23.406;2023-03-18T10:43:49;100259.19;;;49.00;nan
6349;BME280;3207;42.648;23.406;2023-03-18T10:46:19;100267.59;;;47.22;nan
6349;BME280;3207;42.648;23.406;2023-03-18T10:48:49;100257.22;;;47.07;nan
6349;BME280;3207;42.648;23.406;2023-03-18T10:51:20;100248.22;;;47.50;nan
6349;BME280;3207;42.648;23.406;2023-03-18T10:53:56;100254.66;;;47.82;nan
6349;BME280;3207;42.648;23.406;2023-03-18T10:56:26;100251.19;;;48.00;nan
6349;BME280;3207;42.648;23.406;2023-03-18T10:58:53;100241.28;;;47.99;nan
6349;BME280;3207;42.648;23.406;2023-03-18T11:01:22;100246.28;;;48.57;nan
6349;BME280;3207;42.648;23.406;2023-03-18T11:03:52;100227.72;;;49.31;nan
6349;BME280;3207;42.648;23.406;2023-03-18T11:06:22;100238.38;;;50.32;nan
6349;BME280;3207;42.648;23.406;2023-03-18T11:08:59;100249.41;;;50.51;nan
6349;BME280;3207;42.648;23.406;2023-03-18T11:11:29;100243.50;;;49.65;nan
6349;BME280;3207;42.648;23.406;2023-03-18T11:14:00;100245.28;;;49.54;nan
6349;BME280;3207;42.648;23.406;2023-03-18T11:16:32;100239.06;;;48.87;nan
6349;BME280;3207;42.648;23.406;2023-03-18T11:19:06;100241.41;;;49.59;nan
6349;BME280;3207;42.648;23.406;2023-03-18T11:21:34;100227.97;;;49.06;nan
6349;BME280;3207;42.648;23.406;2023-03-18T11:24:01;100236.34;;;49.45;nan
6349;BME280;3207;42.648;23.406;2023-03-18T11:26:51;100217.00;;;50.66;nan
6349;BME280;3207;42.648;23.406;2023-03-18T11:29:21;100235.78;;;50.99;nan
6349;BME280;3207;42.648;23.406;2023-03-18T11:31:54;100204.00;;;51.07;nan
6349;BME280;3207;42.648;23.406;2023-03-18T11:34:23;100214.84;;;51.46;nan
6349;BME280;3207;42.648;23.406;2023-03-18T11:36:55;100219.38;;;51.24;nan
6349;BME280;3207;42.648;23.406;2023-03-18T11:39:24;100189.44;;;50.87;nan
6349;BME280;3207;42.648;23.406;2023-03-18T11:41:53;100217.00;;;50.66;nan
6349;BME280;3207;42.648;23.406;2023-03-18T11:44:27;100208.19;;;50.11;nan
6349;BME280;3207;42.648;23.406;2023-03-18T11:46:59;100207.75;;;48.71;nan
6349;BME280;3207;42.648;23.406;2023-03-18T11:49:28;100203.22;;;47.13;nan
6349;BME280;3207;42.648;23.406;2023-03-18T11:52:21;100201.91;;;46.34;nan
6349;BME280;3207;42.648;23.406;2023-03-18T11:55:12;100185.13;;;45.48;nan
6349;BME280;3207;42.648;23.406;2023-03-18T11:58:08;100180.47;;;44.57;nan
6349;BME280;3207;42.648;23.406;2023-03-18T12:00:48;100178.88;;;42.94;nan
6349;BME280;3207;42.648;23.406;2023-03-18T12:06:20;100161.41;;;38.31;nan
6349;BME280;3207;42.648;23.406;2023-03-18T12:08:59;100148.25;;;36.63;nan
6349;BME280;3207;42.648;23.406;2023-03-18T12:11:53;100131.56;;;34.36;nan
6349;BME280;3207;42.648;23.406;2023-03-18T12:14:28;100137.28;;;33.24;nan
6349;BME280;3207;42.648;23.406;2023-03-18T12:17:07;100131.59;;;31.61;nan
6349;BME280;3207;42.648;23.406;2023-03-18T12:20:12;100122.78;;;30.52;nan
6349;BME280;3207;42.648;23.406;2023-03-18T12:25:51;100103.91;;;29.24;nan
6349;BME280;3207;42.648;23.406;2023-03-18T12:28:30;100112.09;;;28.39;nan
6349;BME280;3207;42.648;23.406;2023-03-18T12:31:16;100103.31;;;27.64;nan
6349;BME280;3207;42.648;23.406;2023-03-18T12:33:52;100099.84;;;27.32;nan
6349;BME280;3207;42.648;23.406;2023-03-18T12:36:42;100099.38;;;26.66;nan
6349;BME280;3207;42.648;23.406;2023-03-18T12:39:38;100098.31;;;26.15;nan
6349;BME280;3207;42.648;23.406;2023-03-18T12:42:10;100092.59;;;25.59;nan
6349;BME280;3207;42.648;23.406;2023-03-18T12:44:52;100100.16;;;24.42;nan
6349;BME280;3207;42.648;23.406;2023-03-18T12:47:28;100094.44;;;24.17;nan
6349;BME280;3207;42.648;23.406;2023-03-18T12:50:01;100090.09;;;24.09;nan
6349;BME280;3207;42.648;23.406;2023-03-18T12:52:35;100094.94;;;23.99;nan
6349;BME280;3207;42.648;23.406;2023-03-18T12:55:08;100090.31;;;23.80;nan
6349;BME280;3207;42.648;23.406;2023-03-18T12:57:43;100088.56;;;23.66;nan
6349;BME280;3207;42.648;23.406;2023-03-18T13:00:20;100084.16;;;23.52;nan
6349;BME280;3207;42.648;23.406;2023-03-18T13:02:57;100083.22;;;23.45;nan
6349;BME280;3207;42.648;23.406;2023-03-18T13:05:35;100085.41;;;23.34;nan
6349;BME280;3207;42.648;23.406;2023-03-18T13:08:43;100088.91;;;23.35;nan
6349;BME280;3207;42.648;23.406;2023-03-18T13:11:24;100067.56;;;23.35;nan
6349;BME280;3207;42.648;23.406;2023-03-18T13:13:59;100085.41;;;23.34;nan
6349;BME280;3207;42.648;23.406;2023-03-18T13:16:29;100077.53;;;23.26;nan
6349;BME280;3207;42.648;23.406;2023-03-18T13:19:00;100078.28;;;23.20;nan
6349;BME280;3207;42.648;23.406;2023-03-18T13:21:29;100085.16;;;23.29;nan
6349;BME280;3207;42.648;23.406;2023-03-18T13:24:18;100082.50;;;23.29;nan
6349;BME280;3207;42.648;23.406;2023-03-18T13:27:26;100073.72;;;23.35;nan
6349;BME280;3207;42.648;23.406;2023-03-18T13:30:01;100078.00;;;23.30;nan
6349;BME280;3207;42.648;23.406;2023-03-18T13:32:49;100087.19;;;23.27;nan
6349;BME280;3207;42.648;23.406;2023-03-18T13:35:30;100060.84;;;22.60;nan
6349;BME280;3207;42.648;23.406;2023-03-18T13:38:20;100074.59;;;22.79;nan
6349;BME280;3207;42.648;23.406;2023-03-18T13:41:03;100076.22;;;22.44;nan
6349;BME280;3207;42.648;23.406;2023-03-18T13:43:34;100063.91;;;22.43;nan
6349;BME280;3207;42.648;23.406;2023-03-18T13:46:16;100052.84;;;22.60;nan
6349;BME280;3207;42.648;23.406;2023-03-18T13:48:44;100052.66;;;22.98;nan
6349;BME280;3207;42.648;23.406;2023-03-18T13:51:43;100059.88;;;23.25;nan
6349;BME280;3207;42.648;23.406;2023-03-18T13:54:14;100053.28;;;23.21;nan
6349;BME280;3207;42.648;23.406;2023-03-18T13:56:49;100045.78;;;23.10;nan
6349;BME280;3207;42.648;23.406;2023-03-18T13:59:42;100034.50;;;22.87;nan
6349;BME280;3207;42.648;23.406;2023-03-18T14:02:42;100042.94;;;22.90;nan
6349;BME280;3207;42.648;23.406;2023-03-18T14:05:43;100040.59;;;22.81;nan
6349;BME280;3207;42.648;23.406;2023-03-18T14:08:37;100039.41;;;22.69;nan
6349;BME280;3207;42.648;23.406;2023-03-18T14:14:52;100025.19;;;22.61;nan
6349;BME280;3207;42.648;23.406;2023-03-18T14:17:25;100026.47;;;22.66;nan
6349;BME280;3207;42.648;23.406;2023-03-18T14:20:03;100009.47;;;22.67;nan
6349;BME280;3207;42.648;23.406;2023-03-18T14:22:34;100016.72;;;22.58;nan
6349;BME280;3207;42.648;23.406;2023-03-18T14:25:19;100014.06;;;22.58;nan
6349;BME280;3207;42.648;23.406;2023-03-18T14:27:48;100016.13;;;22.56;nan
6349;BME280;3207;42.648;23.406;2023-03-18T14:30:44;100011.06;;;22.46;nan
6349;BME280;3207;42.648;23.406;2023-03-18T14:33:34;100008.03;;;22.49;nan
6349;BME280;3207;42.648;23.406;2023-03-18T14:36:07;100007.91;;;22.57;nan
6349;BME280;3207;42.648;23.406;2023-03-18T14:38:44;99999.91;;;22.57;nan
6349;BME280;3207;42.648;23.406;2023-03-18T14:41:17;100000.34;;;22.76;nan
6349;BME280;3207;42.648;23.406;2023-03-18T14:43:53;99999.72;;;22.95;nan
6349;BME280;3207;42.648;23.406;2023-03-18T14:46:31;99985.22;;;23.04;nan
6349;BME280;3207;42.648;23.406;2023-03-18T14:48:59;99963.31;;;23.09;nan
6349;BME280;3207;42.648;23.406;2023-03-18T14:51:28;99992.28;;;23.40;nan
6349;BME280;3207;42.648;23.406;2023-03-18T14:54:04;99985.63;;;23.29;nan
6349;BME280;3207;42.648;23.406;2023-03-18T14:56:39;99990.59;;;23.11;nan
6349;BME280;3207;42.648;23.406;2023-03-18T14:59:08;99987.13;;;22.89;nan
6349;BME280;3207;42.648;23.406;2023-03-18T15:01:43;99992.63;;;22.45;nan
6349;BME280;3207;42.648;23.406;2023-03-18T15:04:17;99987.06;;;22.25;nan
6349;BME280;3207;42.648;23.406;2023-03-18T15:06:44;99994.19;;;22.03;nan
6349;BME280;3207;42.648;23.406;2023-03-18T15:09:16;99989.94;;;21.79;nan
6349;BME280;3207;42.648;23.406;2023-03-18T15:11:45;99988.56;;;21.54;nan
6349;BME280;3207;42.648;23.406;2023-03-18T15:14:19;99985.44;;;21.13;nan
6349;BME280;3207;42.648;23.406;2023-03-18T15:16:49;99987.03;;;20.85;nan
6349;BME280;3207;42.648;23.406;2023-03-18T15:19:18;99979.97;;;20.92;nan
6349;BME280;3207;42.648;23.406;2023-03-18T15:21:57;99970.59;;;20.81;nan
6349;BME280;3207;42.648;23.406;2023-03-18T15:24:29;99987.44;;;20.73;nan
6349;BME280;3207;42.648;23.406;2023-03-18T15:27:04;99927.59;;;20.09;nan
6349;BME280;3207;42.648;23.406;2023-03-18T15:29:35;99912.06;;;19.59;nan
6349;BME280;3207;42.648;23.406;2023-03-18T15:32:08;99968.31;;;19.85;nan
6349;BME280;3207;42.648;23.406;2023-03-18T15:34:50;99985.03;;;20.02;nan
6349;BME280;3207;42.648;23.406;2023-03-18T15:37:31;99964.84;;;19.85;nan
6349;BME280;3207;42.648;23.406;2023-03-18T15:40:14;99978.66;;;19.72;nan
6349;BME280;3207;42.648;23.406;2023-03-18T15:42:44;99966.56;;;19.69;nan
6349;BME280;3207;42.648;23.406;2023-03-18T15:45:17;99981.66;;;19.61;nan
6349;BME280;3207;42.648;23.406;2023-03-18T15:47:49;99982.31;;;19.63;nan
6349;BME280;3207;42.648;23.406;2023-03-18T15:50:24;99976.22;;;19.46;nan
6349;BME280;3207;42.648;23.406;2023-03-18T15:53:05;99983.50;;;19.44;nan
6349;BME280;3207;42.648;23.406;2023-03-18T15:55:46;99985.66;;;19.41;nan
6349;BME280;3207;42.648;23.406;2023-03-18T15:58:19;99977.41;;;19.19;nan
6349;BME280;3207;42.648;23.406;2023-03-18T16:00:47;99984.53;;;19.11;nan
6349;BME280;3207;42.648;23.406;2023-03-18T16:03:17;99974.09;;;19.09;nan
6349;BME280;3207;42.648;23.406;2023-03-18T16:05:46;99981.88;;;19.19;nan
6349;BME280;3207;42.648;23.406;2023-03-18T16:08:13;99985.53;;;19.26;nan
6349;BME280;3207;42.648;23.406;2023-03-18T16:10:40;99992.50;;;19.27;nan
6349;BME280;3207;42.648;23.406;2023-03-18T16:13:17;99991.50;;;19.20;nan
6349;BME280;3207;42.648;23.406;2023-03-18T16:15:45;99993.50;;;19.10;nan
6349;BME280;3207;42.648;23.406;2023-03-18T16:18:12;99991.19;;;19.07;nan
6349;BME280;3207;42.648;23.406;2023-03-18T16:20:39;99993.66;;;19.00;nan
6349;BME280;3207;42.648;23.406;2023-03-18T16:23:09;99998.44;;;18.96;nan
6349;BME280;3207;42.648;23.406;2023-03-18T16:25:38;99992.16;;;18.89;nan
6349;BME280;3207;42.648;23.406;2023-03-18T16:28:06;99994.16;;;18.87;nan
6349;BME280;3207;42.648;23.406;2023-03-18T16:30:34;99996.81;;;18.79;nan
6349;BME280;3207;42.648;23.406;2023-03-18T16:33:07;100004.06;;;18.77;nan
6349;BME280;3207;42.648;23.406;2023-03-18T16:35:37;99999.13;;;18.74;nan
6349;BME280;3207;42.648;23.406;2023-03-18T16:38:04;100007.22;;;18.73;nan
6349;BME280;3207;42.648;23.406;2023-03-18T16:40:32;100004.06;;;18.69;nan
6349;BME280;3207;42.648;23.406;2023-03-18T16:42:59;100014.00;;;18.67;nan
6349;BME280;3207;42.648;23.406;2023-03-18T16:45:28;100002.16;;;18.45;nan
6349;BME280;3207;42.648;23.406;2023-03-18T16:47:57;100015.41;;;18.45;nan
6349;BME280;3207;42.648;23.406;2023-03-18T16:50:28;100017.53;;;18.34;nan
6349;BME280;3207;42.648;23.406;2023-03-18T16:52:56;99995.31;;;18.10;nan
6349;BME280;3207;42.648;23.406;2023-03-18T16:55:23;99993.97;;;18.06;nan
6349;BME280;3207;42.648;23.406;2023-03-18T16:57:51;100025.06;;;18.12;nan
6349;BME280;3207;42.648;23.406;2023-03-18T17:00:21;100019.75;;;18.04;nan
6349;BME280;3207;42.648;23.406;2023-03-18T17:02:49;100010.91;;;17.87;nan
6349;BME280;3207;42.648;23.406;2023-03-18T17:05:20;100024.13;;;17.87;nan
6349;BME280;3207;42.648;23.406;2023-03-18T17:07:47;100017.97;;;17.79;nan
6349;BME280;3207;42.648;23.406;2023-03-18T17:10:16;100019.81;;;17.61;nan
6349;BME280;3207;42.648;23.406;2023-03-18T17:12:48;100024.44;;;17.59;nan
6349;BME280;3207;42.648;23.406;2023-03-18T17:15:17;100032.03;;;17.62;nan
6349;BME280;3207;42.648;23.406;2023-03-18T17:17:46;100033.53;;;17.38;nan
6349;BME280;3207;42.648;23.406;2023-03-18T17:20:16;100026.81;;;17.44;nan
6349;BME280;3207;42.648;23.406;2023-03-18T17:22:44;100028.97;;;17.48;nan
6349;BME280;3207;42.648;23.406;2023-03-18T17:25:11;100036.13;;;17.48;nan
6349;BME280;3207;42.648;23.406;2023-03-18T17:27:42;100045.47;;;17.42;nan
6349;BME280;3207;42.648;23.406;2023-03-18T17:30:18;100047.38;;;17.32;nan
6349;BME280;3207;42.648;23.406;2023-03-18T17:32:45;100045.19;;;17.28;nan
6349;BME280;3207;42.648;23.406;2023-03-18T17:35:14;100030.41;;;17.17;nan
6349;BME280;3207;42.648;23.406;2023-03-18T17:37:42;100031.41;;;17.16;nan
6349;BME280;3207;42.648;23.406;2023-03-18T17:40:12;100044.25;;;17.11;nan
6349;BME280;3207;42.648;23.406;2023-03-18T17:42:40;100043.19;;;17.04;nan
6349;BME280;3207;42.648;23.406;2023-03-18T17:45:17;100041.69;;;16.83;nan
6349;BME280;3207;42.648;23.406;2023-03-18T17:47:46;100041.09;;;16.90;nan
6349;BME280;3207;42.648;23.406;2023-03-18T17:50:13;100036.63;;;16.90;nan
6349;BME280;3207;42.648;23.406;2023-03-18T17:52:40;100041.75;;;16.92;nan
6349;BME280;3207;42.648;23.406;2023-03-18T17:55:14;100045.59;;;16.79;nan
6349;BME280;3207;42.648;23.406;2023-03-18T17:57:41;100048.03;;;16.73;nan
6349;BME280;3207;42.648;23.406;2023-03-18T18:00:14;100042.28;;;16.77;nan
6349;BME280;3207;42.648;23.406;2023-03-18T18:02:41;100048.53;;;16.76;nan
6349;BME280;3207;42.648;23.406;2023-03-18T18:05:12;100042.56;;;16.74;nan
6349;BME280;3207;42.648;23.406;2023-03-18T18:07:41;100043.19;;;16.68;nan
6349;BME280;3207;42.648;23.406;2023-03-18T18:10:10;100047.84;;;16.74;nan
6349;BME280;3207;42.648;23.406;2023-03-18T18:12:40;100047.19;;;16.72;nan
6349;BME280;3207;42.648;23.406;2023-03-18T18:15:17;100056.00;;;16.63;nan
6349;BME280;3207;42.648;23.406;2023-03-18T18:17:45;100051.56;;;16.54;nan
6349;BME280;3207;42.648;23.406;2023-03-18T18:20:13;100047.66;;;16.58;nan
6349;BME280;3207;42.648;23.406;2023-03-18T18:22:43;100065.84;;;16.61;nan
6349;BME280;3207;42.648;23.406;2023-03-18T18:25:17;100059.13;;;16.49;nan
6349;BME280;3207;42.648;23.406;2023-03-18T18:27:46;100059.69;;;16.43;nan
6349;BME280;3207;42.648;23.406;2023-03-18T18:30:15;100060.28;;;16.37;nan
6349;BME280;3207;42.648;23.406;2023-03-18T18:32:43;100062.28;;;16.25;nan
6349;BME280;3207;42.648;23.406;2023-03-18T18:35:14;100059.09;;;16.22;nan
6349;BME280;3207;42.648;23.406;2023-03-18T18:37:41;100058.13;;;16.23;nan
6349;BME280;3207;42.648;23.406;2023-03-18T18:40:10;100072.00;;;16.25;nan
6349;BME280;3207;42.648;23.406;2023-03-18T18:42:38;100065.69;;;16.18;nan
6349;BME280;3207;42.648;23.406;2023-03-18T18:45:08;100059.59;;;16.07;nan
6349;BME280;3207;42.648;23.406;2023-03-18T18:47:35;100069.31;;;16.07;nan
6349;BME280;3207;42.648;23.406;2023-03-18T18:50:03;100063.41;;;15.95;nan
6349;BME280;3207;42.648;23.406;2023-03-18T18:52:30;100062.44;;;15.96;nan
6349;BME280;3207;42.648;23.406;2023-03-18T18:54:59;100060.13;;;16.11;nan
6349;BME280;3207;42.648;23.406;2023-03-18T18:57:27;100066.56;;;16.08;nan
6349;BME280;3207;42.648;23.406;2023-03-18T18:59:54;100065.84;;;16.06;nan
6349;BME280;3207;42.648;23.406;2023-03-18T19:02:30;100070.44;;;16.04;nan
6349;BME280;3207;42.648;23.406;2023-03-18T19:04:58;100077.38;;;16.05;nan
6349;BME280;3207;42.648;23.406;2023-03-18T19:07:27;100081.06;;;15.85;nan
6349;BME280;3207;42.648;23.406;2023-03-18T19:09:53;100077.88;;;15.82;nan
6349;BME280;3207;42.648;23.406;2023-03-18T19:12:21;100076.13;;;15.63;nan
6349;BME280;3207;42.648;23.406;2023-03-18T19:14:48;99983.84;;;14.97;nan
6349;BME280;3207;42.648;23.406;2023-03-18T19:17:18;100063.38;;;15.39;nan
6349;BME280;3207;42.648;23.406;2023-03-18T19:19:49;100083.59;;;15.48;nan
6349;BME280;3207;42.648;23.406;2023-03-18T19:22:18;100086.25;;;15.38;nan
6349;BME280;3207;42.648;23.406;2023-03-18T19:24:47;100091.13;;;15.33;nan
6349;BME280;3207;42.648;23.406;2023-03-18T19:27:18;100079.44;;;15.26;nan
6349;BME280;3207;42.648;23.406;2023-03-18T19:29:46;100079.19;;;15.20;nan
6349;BME280;3207;42.648;23.406;2023-03-18T19:32:15;100072.53;;;15.06;nan
6349;BME280;3207;42.648;23.406;2023-03-18T19:34:44;100089.47;;;15.04;nan
6349;BME280;3207;42.648;23.406;2023-03-18T19:37:16;100093.31;;;14.90;nan
6349;BME280;3207;42.648;23.406;2023-03-18T19:39:43;100080.03;;;14.82;nan
6349;BME280;3207;42.648;23.406;2023-03-18T19:42:14;100065.84;;;14.63;nan
6349;BME280;3207;42.648;23.406;2023-03-18T19:44:42;100086.50;;;14.78;nan
6349;BME280;3207;42.648;23.406;2023-03-18T19:47:15;100089.41;;;14.75;nan
6349;BME280;3207;42.648;23.406;2023-03-18T19:49:42;100099.66;;;14.78;nan
6349;BME280;3207;42.648;23.406;2023-03-18T19:52:21;100094.53;;;14.67;nan
6349;BME280;3207;42.648;23.406;2023-03-18T19:54:48;100089.66;;;14.62;nan
6349;BME280;3207;42.648;23.406;2023-03-18T19:57:17;100089.34;;;14.46;nan
6349;BME280;3207;42.648;23.406;2023-03-18T19:59:47;100081.72;;;14.43;nan
6349;BME280;3207;42.648;23.406;2023-03-18T20:02:18;100091.97;;;14.46;nan
6349;BME280;3207;42.648;23.406;2023-03-18T20:04:46;100100.25;;;14.41;nan
6349;BME280;3207;42.648;23.406;2023-03-18T20:07:14;100061.97;;;14.18;nan
6349;BME280;3207;42.648;23.406;2023-03-18T20:09:43;100092.03;;;14.35;nan
6349;BME280;3207;42.648;23.406;2023-03-18T20:12:19;100097.06;;;14.38;nan
6349;BME280;3207;42.648;23.406;2023-03-18T20:14:47;100091.31;;;14.23;nan